Summit Lake, Canada
Current Conditions -  °F | °C
As of 7:00 PM on Saturday 22 Nov 2014 (Local Time) from CYXS Reporting Station
Overcast Overcast  
Wind Chill: 26°   Ceiling: 11000
Heat Index: 32°   Visibility: 9mi
Dew Point: 28°   Wind: 6mph
Humidity: 87%   Direction: 180°S
Pressure: 29.68"   Gusts: NA
Location:  54.28°N, 122.63°W
Report Text: CYXS 230300Z AUTO 18005KT 9SM OVC110 M00/M02 A2968 RMK SLP079
Loading
Personal Weather Stations






























Interactive Weather Map New forecast layout! Learn more

10-Day Weather Forecast

Advertisements
Track Severe Weather on mobile